Time;durP1;ratioP1;P1;durP2;ratioP2;P2;SDS_P1;SDS_P2;PMS_P1;PMS_P2;Temp;Humidity;BMP_temperature;BMP_pressure;BME280_temperature;BME280_humidity;BME280_pressure;Samples;Min_cycle;Max_cycle;Signal;HPM_P1;HPM_P2
2022/06/23 00:01:02;;;;;;;6.55;3.25;;;;;;;18.64;59.73;99124.53;5007475;28;20361;-74
2022/06/23 00:03:34;;;;;;;8.38;3.47;;;;;;;18.62;60.41;99124.66;5025083;28;20045;-73
2022/06/23 00:06:05;;;;;;;6.20;3.22;;;;;;;18.57;60.81;99116.22;5012983;28;20080;-74
2022/06/23 00:08:42;;;;;;;7.75;3.72;;;;;;;18.55;60.75;99112.03;5016919;28;20055;-73
2022/06/23 00:11:21;;;;;;;7.93;3.80;;;;;;;18.59;60.58;99119.59;5012469;28;20810;-73
2022/06/23 00:13:48;;;;;;;4.38;3.33;;;;;;;18.65;59.56;99116.34;5010496;28;20467;-73
2022/06/23 00:16:23;;;;;;;5.60;3.45;;;;;;;18.67;60.38;99114.38;5012621;28;20156;-74
2022/06/23 00:18:51;;;;;;;7.38;4.43;;;;;;;18.66;60.11;99112.72;5027321;28;20425;-74
2022/06/23 00:21:27;;;;;;;8.32;4.13;;;;;;;18.66;60.15;99107.38;5025685;28;20080;-74
2022/06/23 00:24:00;;;;;;;7.07;4.28;;;;;;;18.67;60.20;99113.53;5010280;28;20519;-74
2022/06/23 00:26:30;;;;;;;8.93;4.03;;;;;;;18.66;59.83;99107.38;5011310;28;20057;-73
2022/06/23 00:29:00;;;;;;;6.88;3.38;;;;;;;18.67;60.21;99111.72;5013290;28;20064;-74
2022/06/23 00:31:30;;;;;;;6.30;3.63;;;;;;;18.67;60.07;99109.03;5022724;28;20064;-74
2022/06/23 00:34:00;;;;;;;9.00;3.13;;;;;;;18.66;59.69;99106.53;4987186;28;20144;-74
2022/06/23 00:36:35;;;;;;;5.38;4.05;;;;;;;18.67;59.96;99106.38;5015890;28;20042;-73
2022/06/23 00:39:03;;;;;;;6.13;3.40;;;;;;;18.64;59.90;99101.31;5020158;28;20053;-74
2022/06/23 00:41:33;;;;;;;6.35;3.88;;;;;;;18.63;59.89;99102.31;5017429;28;20046;-73
2022/06/23 00:44:03;;;;;;;5.38;3.78;;;;;;;18.59;60.19;99103.59;5025928;28;20127;-73
2022/06/23 00:46:36;;;;;;;5.78;3.55;;;;;;;18.51;60.91;99095.47;5025236;28;20045;-72
2022/06/23 00:49:16;;;;;;;5.93;2.80;;;;;;;18.41;61.36;99097.28;5012221;28;20115;-73
2022/06/23 00:51:46;;;;;;;6.32;3.35;;;;;;;18.38;61.54;99093.06;5022596;28;20410;-72
2022/06/23 00:54:20;;;;;;;7.00;3.30;;;;;;;18.33;61.28;99097.16;5006857;28;20049;-72
2022/06/23 00:56:55;;;;;;;5.88;3.60;;;;;;;18.32;61.38;99093.66;5025859;28;20046;-72
2022/06/23 00:59:26;;;;;;;7.28;4.15;;;;;;;18.32;61.36;99093.66;5040459;28;20432;-73
2022/06/23 01:01:59;;;;;;;5.10;2.92;;;;;;;18.32;61.43;99098.16;4983988;28;20049;-73
2022/06/23 01:04:34;;;;;;;6.03;2.88;;;;;;;18.35;61.17;99104.03;5010691;28;20057;-73
2022/06/23 01:07:05;;;;;;;6.57;3.65;;;;;;;18.36;61.33;99097.72;5025319;28;20045;-72
2022/06/23 01:09:40;;;;;;;6.40;3.25;;;;;;;18.29;61.95;99093.94;5008842;28;20065;-72
2022/06/23 01:12:21;;;;;;;5.80;3.67;;;;;;;18.28;62.16;99099.41;5019502;28;20057;-72
2022/06/23 01:14:51;;;;;;;6.18;3.97;;;;;;;18.21;62.26;99107.13;5017675;28;20657;-72
2022/06/23 01:17:21;;;;;;;4.88;3.30;;;;;;;18.26;61.99;99112.03;5009015;28;20050;-73
2022/06/23 01:20:17;;;;;;;6.75;3.78;;;;;;;18.25;62.36;99097.88;5009319;28;20633;-72
2022/06/23 01:23:00;;;;;;;5.18;3.33;;;;;;;18.17;63.15;99105.75;5015343;28;20559;-73
2022/06/23 01:26:02;;;;;;;5.07;3.38;;;;;;;18.08;63.35;99101.25;5011180;28;20134;-74
2022/06/23 01:28:35;;;;;;;7.60;3.47;;;;;;;18.08;62.53;99107.41;5004023;28;20049;-73
2022/06/23 01:31:06;;;;;;;4.25;3.00;;;;;;;18.15;62.34;99103.22;5037865;28;20564;-73
2022/06/23 01:33:40;;;;;;;9.50;3.33;;;;;;;18.19;62.00;99115.28;5015746;28;20077;-73
2022/06/23 01:36:14;;;;;;;6.05;3.40;;;;;;;18.22;61.95;99119.50;5037856;28;20136;-72
2022/06/23 01:38:52;;;;;;;8.07;4.70;;;;;;;18.27;61.88;99121.75;5035918;28;20040;-73
2022/06/23 01:41:22;;;;;;;7.45;3.55;;;;;;;18.27;62.07;99121.75;5028579;28;20049;-72
2022/06/23 01:43:59;;;;;;;8.18;3.97;;;;;;;18.23;62.36;99116.69;5012400;28;20129;-74
2022/06/23 01:46:32;;;;;;;5.82;3.33;;;;;;;18.28;62.03;99113.59;5033305;28;20598;-73
2022/06/23 01:49:02;;;;;;;6.55;3.05;;;;;;;18.36;61.85;99115.53;5030596;28;20119;-74
2022/06/23 01:51:31;;;;;;;12.85;4.05;;;;;;;18.39;61.61;99113.44;5020176;28;20520;-73
2022/06/23 01:54:09;;;;;;;8.32;3.58;;;;;;;18.42;61.11;99112.31;5029709;28;20044;-74
2022/06/23 01:56:44;;;;;;;5.53;3.38;;;;;;;18.40;61.99;99116.97;5036531;28;20068;-74
2022/06/23 01:59:25;;;;;;;8.70;3.42;;;;;;;18.43;61.52;99108.66;5031691;28;20051;-73
2022/06/23 02:01:57;;;;;;;6.10;3.88;;;;;;;18.42;60.83;99107.81;5008718;28;20152;-74
2022/06/23 02:04:33;;;;;;;4.13;2.80;;;;;;;18.49;60.31;99108.09;5032812;28;20053;-74
2022/06/23 02:07:03;;;;;;;;;;;;;;;18.53;60.65;99111.31;5028920;28;20045;-74
2022/06/23 02:09:34;;;;;;;4.85;3.35;;;;;;;18.50;60.57;99107.09;5040472;28;19931;-74
2022/06/23 02:12:00;;;;;;;4.88;2.97;;;;;;;18.51;59.64;99102.59;5029650;28;20416;-73
2022/06/23 02:14:49;;;;;;;6.68;3.03;;;;;;;18.58;59.11;99101.91;5034999;28;20115;-74
2022/06/23 02:17:40;;;;;;;4.63;2.92;;;;;;;18.65;59.52;99099.50;5039219;28;20111;-73
2022/06/23 02:20:21;;;;;;;3.63;2.97;;;;;;;18.72;59.35;99092.59;5010328;28;20038;-74
2022/06/23 02:22:57;;;;;;;4.78;3.10;;;;;;;18.73;58.82;99096.09;5035995;28;20049;-74
2022/06/23 02:25:30;;;;;;;5.00;3.25;;;;;;;18.78;58.77;99094.72;5027494;28;20531;-74
2022/06/23 02:28:05;;;;;;;4.35;3.28;;;;;;;18.83;58.50;99094.31;5038554;28;20045;-75
2022/06/23 02:30:39;;;;;;;8.60;3.65;;;;;;;18.85;58.52;99094.97;5034120;28;20111;-74
2022/06/23 02:33:16;;;;;;;4.78;3.10;;;;;;;18.88;58.33;99095.53;5029578;28;20152;-74
2022/06/23 02:35:48;;;;;;;7.00;4.35;;;;;;;18.90;59.04;99092.69;5041033;28;20049;-74
2022/06/23 02:38:21;;;;;;;6.57;4.03;;;;;;;18.86;59.13;99096.69;5031042;28;20052;-73
2022/06/23 02:40:50;;;;;;;10.20;3.30;;;;;;;18.80;59.54;99100.78;5031919;28;20045;-74
2022/06/23 02:43:25;;;;;;;6.95;3.83;;;;;;;18.78;59.43;99096.53;5024934;28;20465;-74
2022/06/23 02:46:38;;;;;;;5.95;3.17;;;;;;;18.77;60.06;99094.88;5005713;28;20049;-74
2022/06/23 02:49:38;;;;;;;5.35;3.30;;;;;;;18.74;59.86;99098.63;4992051;28;20055;-74
2022/06/23 02:52:32;;;;;;;6.70;4.13;;;;;;;18.77;59.73;99108.22;5004089;28;20045;-74
2022/06/23 02:55:19;;;;;;;5.30;3.15;;;;;;;18.76;60.14;99101.22;5013982;28;20147;-73
2022/06/23 02:57:52;;;;;;;6.05;3.25;;;;;;;18.71;60.36;99098.94;5023049;28;20041;-74
2022/06/23 03:00:25;;;;;;;8.20;4.03;;;;;;;18.69;60.70;99102.72;5018643;28;20045;-74
2022/06/23 03:03:06;;;;;;;5.63;2.92;;;;;;;18.60;61.56;99097.25;5016886;28;20045;-74
2022/06/23 03:05:42;;;;;;;9.38;4.75;;;;;;;18.58;61.00;99101.06;4996251;28;20096;-74
2022/06/23 03:08:20;;;;;;;11.70;4.13;;;;;;;18.55;61.08;99093.34;5020503;28;20065;-74
2022/06/23 03:10:53;;;;;;;6.35;3.75;;;;;;;18.54;61.12;99100.50;5018908;28;20053;-75
2022/06/23 03:13:31;;;;;;;8.82;3.90;;;;;;;18.51;61.46;99090.13;5011493;28;20432;-74
2022/06/23 03:16:06;;;;;;;5.88;3.85;;;;;;;18.49;61.43;99096.59;5012281;28;20540;-73
2022/06/23 03:18:39;;;;;;;6.30;4.03;;;;;;;18.43;61.80;99090.84;5025835;28;20050;-74
2022/06/23 03:21:13;;;;;;;6.53;3.60;;;;;;;18.39;62.38;99088.59;5037791;28;20533;-75
2022/06/23 03:23:47;;;;;;;10.53;4.43;;;;;;;18.34;62.21;99091.69;5030598;28;20065;-75
2022/06/23 03:26:19;;;;;;;7.32;3.58;;;;;;;18.28;62.79;99096.75;5026427;28;20057;-74
2022/06/23 03:28:52;;;;;;;4.63;3.25;;;;;;;18.28;62.66;99096.75;5017016;28;20061;-74
2022/06/23 03:31:25;;;;;;;5.53;4.13;;;;;;;18.29;62.62;99095.78;5011024;28;20073;-75
2022/06/23 03:33:59;;;;;;;9.55;3.65;;;;;;;18.26;63.02;99093.38;5011514;28;20468;-75
2022/06/23 03:36:31;;;;;;;10.35;4.57;;;;;;;18.28;63.20;99096.75;5031915;28;20047;-72
2022/06/23 03:42:00;;;;;;;4.45;3.38;;;;;;;18.15;63.87;99087.19;5011839;28;20060;-73
2022/06/23 03:44:33;;;;;;;6.35;4.00;;;;;;;18.08;64.25;99093.25;5012620;28;20061;-72
2022/06/23 03:47:04;;;;;;;9.90;4.00;;;;;;;18.10;64.20;99093.94;5022241;28;20052;-72
2022/06/23 03:49:42;;;;;;;5.22;4.10;;;;;;;18.04;64.75;99090.03;5028249;28;20718;-72
2022/06/23 03:52:19;;;;;;;4.38;3.78;;;;;;;17.97;64.90;99087.06;5020031;28;20579;-72
2022/06/23 03:54:53;;;;;;;6.65;4.35;;;;;;;17.90;65.35;99088.59;5031454;28;20108;-72
2022/06/23 03:57:26;;;;;;;7.47;3.70;;;;;;;17.85;65.49;99096.19;5042336;28;20048;-73
2022/06/23 04:00:02;;;;;;;10.63;5.13;;;;;;;17.87;65.57;99091.56;5012438;28;20068;-73
2022/06/23 04:02:36;;;;;;;6.38;3.70;;;;;;;17.85;65.74;99095.34;5036314;28;20055;-74
2022/06/23 04:05:15;;;;;;;5.28;3.38;;;;;;;17.90;65.73;99096.59;5028518;28;20049;-73
2022/06/23 04:07:50;;;;;;;9.38;4.68;;;;;;;17.90;66.04;99098.44;5039456;28;20046;-73
2022/06/23 04:10:24;;;;;;;9.13;4.83;;;;;;;17.87;66.05;99096.88;5026020;28;20083;-74
2022/06/23 04:12:56;;;;;;;6.17;4.17;;;;;;;17.86;66.03;99105.84;5029964;28;20141;-73
2022/06/23 04:15:29;;;;;;;5.30;4.03;;;;;;;17.88;66.24;99103.06;5042838;28;20139;-74
2022/06/23 04:18:02;;;;;;;6.15;3.63;;;;;;;17.94;65.90;99103.34;5028556;28;20048;-73
2022/06/23 04:20:35;;;;;;;9.27;5.25;;;;;;;17.91;66.35;99100.94;5033611;28;20079;-73
2022/06/23 04:23:06;;;;;;;9.88;4.32;;;;;;;17.96;66.23;99098.69;5036037;28;20052;-73
2022/06/23 04:25:41;;;;;;;8.38;4.43;;;;;;;18.03;65.84;99099.84;5025890;28;20045;-73
2022/06/23 04:28:19;;;;;;;6.32;4.47;;;;;;;18.11;66.15;99101.78;5035995;28;20054;-73
2022/06/23 04:30:47;;;;;;;7.13;5.10;;;;;;;18.11;66.56;99091.13;5038533;28;20632;-74
2022/06/23 04:33:18;;;;;;;9.43;5.05;;;;;;;18.17;66.95;99103.09;5031156;28;20045;-74
2022/06/23 04:35:49;;;;;;;9.15;4.88;;;;;;;18.24;66.85;99110.38;5039218;28;20107;-74
2022/06/23 04:38:22;;;;;;;10.15;4.18;;;;;;;18.34;66.72;99112.19;5034229;28;20052;-75
2022/06/23 04:40:51;;;;;;;8.38;4.78;;;;;;;18.38;66.73;99106.41;5026274;28;20075;-74
2022/06/23 04:43:20;;;;;;;7.18;4.15;;;;;;;18.51;67.15;99108.81;5022731;28;20568;-75
2022/06/23 04:45:56;;;;;;;9.55;5.00;;;;;;;18.63;66.65;99104.13;5026481;28;20049;-74
2022/06/23 04:48:31;;;;;;;6.40;4.40;;;;;;;18.80;66.18;99106.13;5030473;28;20068;-74
2022/06/23 04:51:05;;;;;;;7.25;5.13;;;;;;;19.01;65.67;99108.56;5033103;28;20132;-74
2022/06/23 04:53:42;;;;;;;8.27;4.53;;;;;;;19.23;64.41;99103.84;5042051;28;20076;-73
2022/06/23 04:56:21;;;;;;;11.40;4.63;;;;;;;19.43;64.46;99105.44;5022296;28;20102;-72
2022/06/23 04:58:52;;;;;;;8.05;4.90;;;;;;;19.62;63.64;99109.00;5033703;28;20051;-75
2022/06/23 05:01:23;;;;;;;5.10;4.05;;;;;;;19.79;63.20;99104.66;5042303;28;20059;-74
2022/06/23 05:03:54;;;;;;;10.18;5.28;;;;;;;19.93;62.87;99107.66;5009926;28;20056;-74
2022/06/23 05:06:33;;;;;;;8.80;4.43;;;;;;;20.10;62.82;99107.81;5030332;28;20123;-75
2022/06/23 05:09:03;;;;;;;6.65;3.75;;;;;;;20.26;62.46;99110.66;5022752;28;20092;-74
2022/06/23 05:11:39;;;;;;;6.32;4.60;;;;;;;20.43;62.25;99122.34;5042183;28;20055;-74
2022/06/23 05:14:14;;;;;;;13.23;5.20;;;;;;;20.55;61.73;99120.28;5031846;28;20056;-73
2022/06/23 05:16:44;;;;;;;8.95;4.55;;;;;;;20.67;61.72;99121.72;5033466;28;20779;-74
2022/06/23 05:19:18;;;;;;;13.85;5.45;;;;;;;20.78;61.43;99116.09;5025219;28;20599;-74
2022/06/23 05:21:52;;;;;;;8.55;4.97;;;;;;;20.90;61.47;99110.50;5041267;28;20053;-73
2022/06/23 05:24:21;;;;;;;13.55;5.22;;;;;;;20.99;61.11;99106.84;5023832;28;20056;-73
2022/06/23 05:26:52;;;;;;;11.05;4.55;;;;;;;21.05;61.48;99111.59;5023755;28;20056;-75
2022/06/23 05:29:24;;;;;;;11.27;4.93;;;;;;;21.10;61.76;99111.94;5041747;28;20136;-73
2022/06/23 05:31:54;;;;;;;8.73;5.00;;;;;;;21.22;61.88;99115.19;5009945;28;20544;-75
2022/06/23 05:34:24;;;;;;;7.18;5.32;;;;;;;21.34;61.73;99107.69;5028920;28;20056;-75
2022/06/23 05:37:02;;;;;;;10.00;4.85;;;;;;;21.50;61.92;99118.50;4991832;28;20416;-73
2022/06/23 05:39:34;;;;;;;9.48;4.97;;;;;;;21.62;61.01;99111.84;5021358;28;20056;-74
2022/06/23 05:42:11;;;;;;;7.28;5.47;;;;;;;21.81;61.11;99112.59;5028506;28;21553;-73
2022/06/23 05:44:47;;;;;;;14.20;6.22;;;;;;;21.95;60.72;99106.56;5000840;28;20041;-74
2022/06/23 05:47:14;;;;;;;10.63;6.13;;;;;;;22.06;60.97;99103.56;5033638;28;20472;-75
2022/06/23 05:49:46;;;;;;;11.55;5.97;;;;;;;22.28;60.61;99101.28;4993183;28;20053;-75
2022/06/23 05:52:19;;;;;;;11.13;5.05;;;;;;;22.55;60.22;99116.22;5037934;28;20150;-72
2022/06/23 05:54:50;;;;;;;9.63;4.70;;;;;;;22.87;59.42;99111.81;5030439;28;20506;-74
2022/06/23 05:57:22;;;;;;;8.27;4.57;;;;;;;23.12;59.12;99110.75;5005922;28;20053;-74
2022/06/23 06:00:00;;;;;;;9.15;4.63;;;;;;;23.26;58.96;99109.19;5008411;28;20140;-74
2022/06/23 06:02:31;;;;;;;6.00;3.35;;;;;;;23.43;58.88;99101.03;5030115;28;20057;-73
2022/06/23 06:05:01;;;;;;;12.77;5.15;;;;;;;23.52;58.25;99105.38;5027356;28;20049;-75
2022/06/23 06:07:34;;;;;;;10.77;4.63;;;;;;;23.59;58.00;99098.28;5039419;28;20049;-74
2022/06/23 06:10:04;;;;;;;11.32;4.47;;;;;;;23.63;57.81;99102.31;5028216;28;20045;-74
2022/06/23 06:12:35;;;;;;;11.95;5.18;;;;;;;23.73;57.69;99107.50;5025591;28;20050;-75
2022/06/23 06:15:06;;;;;;;13.30;4.55;;;;;;;23.74;57.42;99101.94;5023731;28;20049;-74
2022/06/23 06:17:35;;;;;;;17.55;4.70;;;;;;;23.75;57.45;99109.00;5023196;28;20696;-73
2022/06/23 06:20:06;;;;;;;10.32;3.85;;;;;;;23.86;57.18;99101.53;5034498;28;20050;-73
2022/06/23 06:22:47;;;;;;;9.43;3.90;;;;;;;23.98;56.78;99105.50;5034045;28;20049;-73
2022/06/23 06:25:20;;;;;;;11.00;4.72;;;;;;;23.94;56.59;99102.31;5024700;28;20056;-73
2022/06/23 06:27:47;;;;;;;12.65;4.60;;;;;;;23.94;56.63;99104.16;5007551;28;20041;-73
2022/06/23 06:30:16;;;;;;;12.20;4.68;;;;;;;24.00;56.32;99106.16;5027611;28;20055;-73
2022/06/23 06:32:44;;;;;;;8.02;3.75;;;;;;;24.08;55.58;99100.72;5029744;28;20053;-73
2022/06/23 06:35:20;;;;;;;8.93;4.18;;;;;;;24.18;55.29;99101.31;5019482;28;20049;-74
2022/06/23 06:37:54;;;;;;;14.35;4.78;;;;;;;24.30;55.38;99099.03;5014853;28;20051;-74
2022/06/23 06:40:21;;;;;;;10.73;4.20;;;;;;;24.37;55.83;99094.59;5029730;28;20798;-74
2022/06/23 06:42:52;;;;;;;9.15;4.43;;;;;;;24.54;54.46;99099.84;5029940;28;20283;-74
2022/06/23 06:45:23;;;;;;;8.95;3.97;;;;;;;24.67;54.36;99097.38;5026966;28;20045;-73
2022/06/23 06:47:49;;;;;;;6.93;4.47;;;;;;;24.84;54.04;99103.47;5010141;28;20045;-74
2022/06/23 06:50:28;;;;;;;16.50;4.88;;;;;;;24.93;52.65;99093.41;5029598;28;20136;-74
2022/06/23 06:52:58;;;;;;;9.63;4.05;;;;;;;24.99;52.41;99090.81;5017945;28;20045;-74
2022/06/23 06:55:28;;;;;;;12.90;4.05;;;;;;;25.07;52.22;99090.72;5022287;28;20104;-75
2022/06/23 06:58:02;;;;;;;14.00;4.50;;;;;;;25.21;51.92;99090.94;5026137;28;20604;-75
2022/06/23 07:00:35;;;;;;;9.60;3.72;;;;;;;25.29;51.94;99098.94;5035328;28;20045;-73
2022/06/23 07:03:06;;;;;;;10.43;3.97;;;;;;;25.34;52.03;99093.81;5038209;28;20568;-75
2022/06/23 07:05:40;;;;;;;12.70;4.22;;;;;;;25.37;51.33;99096.13;5027846;28;20475;-73
2022/06/23 07:08:14;;;;;;;14.68;3.72;;;;;;;25.39;50.77;99093.25;5027045;28;20092;-73
2022/06/23 07:10:45;;;;;;;7.72;4.05;;;;;;;25.40;53.29;99100.31;5034473;28;20065;-62
2022/06/23 07:13:25;;;;;;;8.82;3.45;;;;;;;25.53;52.24;99099.66;5027354;28;20057;-63
2022/06/23 07:15:56;;;;;;;11.27;4.85;;;;;;;25.59;51.80;99093.50;4998928;28;20060;-63
2022/06/23 07:18:28;;;;;;;9.90;4.65;;;;;;;25.70;51.49;99098.41;5022522;28;20057;-62
2022/06/23 07:21:02;;;;;;;10.98;4.15;;;;;;;25.79;51.00;99099.13;5032628;28;20049;-64
2022/06/23 07:23:35;;;;;;;11.75;3.85;;;;;;;25.86;50.27;99100.06;5026921;28;20052;-62
2022/06/23 07:26:33;;;;;;;10.07;4.68;;;;;;;25.79;50.84;99099.94;5036708;28;20042;-62
2022/06/23 07:29:07;;;;;;;12.25;5.22;;;;;;;25.97;50.16;99102.28;4988845;28;20056;-62
2022/06/23 07:31:44;;;;;;;6.60;3.78;;;;;;;26.03;50.13;99111.47;5018521;28;20113;-62
2022/06/23 07:34:13;;;;;;;8.95;3.75;;;;;;;26.14;50.49;99110.97;4977562;28;20049;-63
2022/06/23 07:36:44;;;;;;;12.93;4.97;;;;;;;26.37;49.89;99108.06;5000692;28;20050;-62
2022/06/23 07:39:16;;;;;;;11.48;4.18;;;;;;;26.44;49.71;99108.97;5003875;28;20051;-62
2022/06/23 07:41:48;;;;;;;10.18;4.60;;;;;;;26.50;49.87;99107.34;5007328;28;20053;-62
2022/06/23 07:44:18;;;;;;;13.45;4.93;;;;;;;26.65;49.44;99108.09;5023153;28;20188;-63
2022/06/23 07:46:44;;;;;;;9.93;3.40;;;;;;;26.83;49.40;99113.06;5015443;28;20049;-61
2022/06/23 07:49:11;;;;;;;11.15;4.72;;;;;;;26.97;48.73;99111.25;5027349;28;20056;-61
2022/06/23 07:51:39;;;;;;;10.00;4.32;;;;;;;27.00;48.56;99113.59;4995167;28;20053;-62
2022/06/23 07:54:07;;;;;;;9.40;4.32;;;;;;;26.83;49.03;99117.59;5024534;28;20137;-53
2022/06/23 07:56:40;;;;;;;16.23;5.13;;;;;;;26.76;49.13;99112.16;5026553;28;20152;-48
2022/06/23 07:59:11;;;;;;;12.27;5.00;;;;;;;26.61;49.43;99111.44;5001322;28;20049;-55
2022/06/23 08:01:44;;;;;;;9.63;4.53;;;;;;;26.47;50.24;99113.97;5001299;28;20478;-48
2022/06/23 08:04:18;;;;;;;11.48;5.03;;;;;;;26.72;49.43;99111.69;5026274;28;20049;-52
2022/06/23 08:06:47;;;;;;;8.27;4.20;;;;;;;26.89;49.27;99122.22;5013677;28;20478;-51
2022/06/23 08:09:19;;;;;;;8.80;4.47;;;;;;;26.94;49.01;99119.78;5023229;28;20564;-71
2022/06/23 08:14:31;;;;;;;7.88;4.30;;;;;;;27.01;49.18;99114.41;5009115;28;20049;-69
2022/06/23 08:16:59;;;;;;;11.60;5.43;;;;;;;27.14;49.14;99111.78;5023027;28;20037;-70
2022/06/23 08:19:37;;;;;;;14.02;4.70;;;;;;;27.37;48.66;99108.81;5026441;28;20063;-71
2022/06/23 08:22:08;;;;;;;10.13;4.60;;;;;;;27.58;47.95;99116.81;5020007;28;20050;-69
2022/06/23 08:24:38;;;;;;;13.88;4.80;;;;;;;27.74;47.50;99109.38;5018938;28;20119;-69
2022/06/23 08:27:11;;;;;;;12.40;4.82;;;;;;;27.89;47.24;99095.72;5025844;28;20083;-70
2022/06/23 08:29:41;;;;;;;16.05;4.97;;;;;;;27.96;45.94;99108.25;5019687;28;20053;-72
2022/06/23 08:32:08;;;;;;;12.07;3.92;;;;;;;28.05;45.78;99106.16;5004060;28;20979;-72
2022/06/23 08:34:37;;;;;;;8.95;3.92;;;;;;;28.11;45.29;99105.34;5018252;28;20056;-70
2022/06/23 08:37:10;;;;;;;16.85;3.92;;;;;;;28.17;44.59;99106.41;5035381;28;20055;-72
2022/06/23 08:39:43;;;;;;;11.95;4.35;;;;;;;28.29;44.72;99099.31;5006063;28;20056;-73
2022/06/23 08:42:20;;;;;;;10.30;4.77;;;;;;;28.36;44.13;99105.59;5026198;28;20056;-71
2022/06/23 08:44:54;;;;;;;11.95;4.55;;;;;;;28.37;44.15;99104.53;5037377;28;20575;-72
2022/06/23 08:47:28;;;;;;;9.77;4.10;;;;;;;28.50;44.07;99097.47;5026011;28;20574;-70
2022/06/23 08:49:58;;;;;;;13.40;5.35;;;;;;;28.74;44.17;99102.25;5026795;28;20059;-72
2022/06/23 08:52:31;;;;;;;10.25;4.28;;;;;;;29.02;43.38;99093.88;5023713;28;20077;-71
2022/06/23 08:55:02;;;;;;;13.40;4.10;;;;;;;29.30;42.81;99098.22;5026068;28;20056;-71
2022/06/23 08:57:35;;;;;;;10.60;4.32;;;;;;;29.11;43.00;99102.66;5034359;28;20049;-72
2022/06/23 09:00:07;;;;;;;8.63;4.20;;;;;;;29.22;42.40;99112.03;5020534;28;20500;-72
2022/06/23 09:02:41;;;;;;;11.73;3.92;;;;;;;29.54;41.11;99108.38;5015886;28;20053;-71
2022/06/23 09:05:15;;;;;;;9.80;4.50;;;;;;;29.90;40.01;99101.53;5025169;28;20056;-71
2022/06/23 09:07:51;;;;;;;14.45;4.40;;;;;;;30.27;39.99;99092.75;5015466;28;20041;-73
2022/06/23 09:10:28;;;;;;;9.57;4.40;;;;;;;30.35;39.79;99097.94;5017652;28;20409;-72
2022/06/23 09:13:09;;;;;;;7.93;3.72;;;;;;;30.31;39.25;99100.25;5001490;28;20143;-74
2022/06/23 09:15:50;;;;;;;10.57;4.47;;;;;;;30.55;38.23;99095.88;5024727;28;20053;-71
2022/06/23 09:18:47;;;;;;;12.98;5.82;;;;;;;30.99;37.66;99102.22;5020903;28;20060;-70
2022/06/23 09:21:30;;;;;;;13.32;4.13;;;;;;;31.33;36.72;99093.66;5018985;28;20052;-71
2022/06/23 09:24:26;;;;;;;9.38;3.63;;;;;;;31.80;35.18;99086.59;5021664;28;20474;-72
2022/06/23 09:26:57;;;;;;;12.45;3.80;;;;;;;32.31;33.90;99095.31;5029646;28;20281;-71
2022/06/23 09:29:39;;;;;;;10.15;4.15;;;;;;;32.64;33.31;99091.25;5025385;28;20046;-70
2022/06/23 09:32:12;;;;;;;10.45;3.58;;;;;;;33.20;32.58;99076.13;5020729;28;20140;-71
2022/06/23 09:35:24;;;;;;;11.25;3.88;;;;;;;33.81;31.42;99073.84;5024583;28;20050;-71
2022/06/23 09:38:05;;;;;;;14.05;5.03;;;;;;;34.40;31.14;99068.88;4947653;28;20055;-71
2022/06/23 09:40:43;;;;;;;14.07;4.80;;;;;;;35.15;30.28;99074.13;5024760;28;20050;-71
2022/06/23 09:43:32;;;;;;;10.65;5.72;;;;;;;35.50;29.77;99075.69;5017523;28;20053;-72
2022/06/23 09:46:29;;;;;;;13.43;4.32;;;;;;;35.89;28.94;99070.94;5006086;28;20060;-71
2022/06/23 09:49:13;;;;;;;7.45;4.55;;;;;;;35.93;28.74;99066.56;5023587;28;20053;-71
2022/06/23 09:52:02;;;;;;;11.43;4.60;;;;;;;36.09;27.95;99067.59;5022430;28;20140;-69
2022/06/23 09:54:50;;;;;;;8.27;4.68;;;;;;;35.93;28.36;99063.81;5019345;28;20049;-72
2022/06/23 09:57:35;;;;;;;9.23;3.85;;;;;;;36.28;26.82;99063.38;5015525;28;20068;-72
2022/06/23 10:00:10;;;;;;;12.73;4.05;;;;;;;36.68;26.29;99056.56;4996795;28;20060;-71
2022/06/23 10:02:57;;;;;;;17.02;4.10;;;;;;;37.11;25.55;99051.03;5021014;28;20047;-70
2022/06/23 10:05:39;;;;;;;13.35;4.68;;;;;;;37.31;25.13;99051.13;5015482;28;20064;-71
2022/06/23 10:08:24;;;;;;;7.30;3.53;;;;;;;37.11;25.41;99054.63;5023409;28;20045;-72
2022/06/23 10:11:16;;;;;;;11.07;4.15;;;;;;;37.08;25.58;99048.84;5020260;28;20049;-72
2022/06/23 10:14:08;;;;;;;10.88;3.92;;;;;;;37.20;25.27;99052.19;5010890;28;20160;-74
2022/06/23 10:16:48;;;;;;;9.02;4.57;;;;;;;37.14;25.83;99050.50;5021014;28;20053;-71
2022/06/23 10:19:31;;;;;;;9.43;3.83;;;;;;;37.33;25.80;99048.94;5023719;28;20180;-70
2022/06/23 10:22:21;;;;;;;6.05;3.50;;;;;;;37.46;24.92;99044.03;5020823;28;20071;-70
2022/06/23 10:25:20;;;;;;;14.05;4.18;;;;;;;37.58;25.24;99039.16;5012349;28;20052;-70
2022/06/23 10:28:12;;;;;;;8.02;3.78;;;;;;;37.70;25.16;99038.91;5005879;28;20472;-71
2022/06/23 10:30:48;;;;;;;8.15;3.97;;;;;;;37.78;24.73;99038.34;5022892;28;20041;-70
2022/06/23 10:33:37;;;;;;;12.52;3.30;;;;;;;37.93;24.42;99043.06;5014761;28;20501;-72
2022/06/23 10:36:22;;;;;;;13.85;3.38;;;;;;;37.81;24.51;99041.41;5026812;28;20053;-68
2022/06/23 10:39:10;;;;;;;7.70;4.03;;;;;;;37.67;24.10;99031.19;5015441;28;20048;-72
2022/06/23 10:41:50;;;;;;;11.45;3.58;;;;;;;37.63;24.58;99032.84;5016206;28;20896;-75
2022/06/23 10:45:08;;;;;;;10.13;3.58;;;;;;;37.78;24.23;99036.44;5013388;28;20072;-72
2022/06/23 10:47:51;;;;;;;11.52;3.75;;;;;;;37.05;24.83;99030.16;4996008;28;20053;-71
2022/06/23 10:50:47;;;;;;;8.80;3.20;;;;;;;36.25;26.16;99033.69;4999973;28;20049;-72
2022/06/23 10:53:32;;;;;;;9.15;3.97;;;;;;;36.72;25.85;99026.63;5011099;28;20610;-69
2022/06/23 10:56:29;;;;;;;10.88;3.33;;;;;;;37.28;24.50;99024.19;5008739;28;20052;-71
2022/06/23 10:59:10;;;;;;;6.85;3.90;;;;;;;37.35;24.48;99024.75;5010879;28;20049;-70
2022/06/23 11:02:14;;;;;;;8.82;3.35;;;;;;;37.02;25.20;99027.88;5021095;28;20872;-70
2022/06/23 11:04:53;;;;;;;9.07;3.85;;;;;;;36.32;26.04;99025.22;5023134;28;20047;-72
2022/06/23 11:07:31;;;;;;;8.38;4.25;;;;;;;35.34;27.24;99017.91;5032922;28;20055;-71
2022/06/23 11:10:10;;;;;;;9.23;3.72;;;;;;;34.25;28.92;99015.81;5014054;28;20550;-71
2022/06/23 11:12:54;;;;;;;15.20;3.65;;;;;;;33.81;29.11;99018.31;5032804;28;20573;-71
2022/06/23 11:15:28;;;;;;;8.05;3.45;;;;;;;33.65;29.74;99009.84;5011348;28;20153;-71
2022/06/23 11:18:07;;;;;;;;;;;;;;;33.35;30.31;99016.38;5022093;28;20429;-70
2022/06/23 11:20:45;;;;;;;12.70;3.58;;;;;;;33.33;30.39;99023.97;4999175;28;19932;-71
2022/06/23 11:23:23;;;;;;;9.35;3.67;;;;;;;33.26;30.40;99023.28;5021468;28;20050;-71
2022/06/23 11:25:59;;;;;;;10.35;3.47;;;;;;;33.18;30.67;99025.53;5027765;28;20049;-71
2022/06/23 11:28:41;;;;;;;10.07;3.72;;;;;;;33.06;30.99;99020.13;5015902;28;20421;-73
2022/06/23 11:31:21;;;;;;;19.05;3.63;;;;;;;32.87;30.68;99016.69;5042673;28;20048;-72
2022/06/23 11:34:03;;;;;;;9.10;3.72;;;;;;;32.61;31.52;99026.19;5014531;28;20053;-72
2022/06/23 11:36:54;;;;;;;8.43;3.25;;;;;;;32.59;32.13;99021.00;5028769;28;20046;-72
2022/06/23 11:39:47;;;;;;;14.13;3.42;;;;;;;32.58;31.95;99010.31;5006033;28;20134;-72
2022/06/23 11:42:42;;;;;;;11.68;3.40;;;;;;;32.66;31.90;99012.66;4994430;28;20045;-72
2022/06/23 11:45:22;;;;;;;6.95;2.97;;;;;;;32.67;32.44;99004.25;4990285;28;20045;-72
2022/06/23 11:48:00;;;;;;;9.18;3.00;;;;;;;32.60;32.18;99009.00;5010329;28;20049;-71
2022/06/23 11:50:40;;;;;;;12.48;4.00;;;;;;;32.53;32.11;99008.28;4995762;28;20049;-72
2022/06/23 11:53:20;;;;;;;7.70;4.03;;;;;;;32.34;32.06;99010.25;4982773;28;20148;-73
2022/06/23 11:55:51;;;;;;;9.02;3.20;;;;;;;32.01;32.77;98999.91;5005443;28;20157;-72
2022/06/23 11:58:41;;;;;;;11.00;3.10;;;;;;;31.81;32.83;99006.47;5025230;28;20064;-71
2022/06/23 12:01:15;;;;;;;9.50;4.20;;;;;;;31.75;32.72;98998.38;5012028;28;20046;-72
2022/06/23 12:03:54;;;;;;;13.60;4.05;;;;;;;31.81;32.80;99003.75;5013218;28;20060;-70
2022/06/23 12:06:32;;;;;;;5.53;3.25;;;;;;;31.51;32.67;99001.06;5015075;28;20054;-71
2022/06/23 12:09:02;;;;;;;11.68;2.70;;;;;;;31.21;32.96;98995.56;5026004;28;20152;-71
2022/06/23 12:11:31;;;;;;;11.65;3.88;;;;;;;31.02;33.78;98995.56;5013165;28;20046;-70
2022/06/23 12:14:03;;;;;;;6.65;2.75;;;;;;;30.90;33.72;98993.84;5026971;28;20057;-70
2022/06/23 12:16:31;;;;;;;6.05;2.97;;;;;;;30.76;33.76;98993.09;5016758;28;20112;-72
2022/06/23 12:19:02;;;;;;;6.32;2.60;;;;;;;30.71;33.91;98991.06;5020628;28;20464;-71